createdAt,value
2016-11-27T00:00:07.370Z,7.28
2016-11-27T00:01:08.420Z,7.44
2016-11-27T00:02:15.662Z,7.52
2016-11-27T00:03:07.284Z,7.59
2016-11-27T00:04:07.866Z,7.48
2016-11-27T00:05:07.455Z,7.51
2016-11-27T00:06:08.016Z,7.17
2016-11-27T00:07:08.485Z,7.35
2016-11-27T00:08:08.125Z,7.44
2016-11-27T00:09:07.703Z,7.46
2016-11-27T00:10:07.207Z,7.55
2016-11-27T00:11:07.775Z,7.61
2016-11-27T00:12:07.432Z,7.57
2016-11-27T00:13:08.167Z,7.45
2016-11-27T00:14:07.822Z,7.66
2016-11-27T00:15:07.367Z,7.47
2016-11-27T00:16:08.407Z,7.34
2016-11-27T00:17:07.911Z,7.41
2016-11-27T00:18:07.139Z,7.50
2016-11-27T00:19:07.711Z,7.48
2016-11-27T00:20:07.277Z,7.33
2016-11-27T00:21:07.832Z,7.54
2016-11-27T00:22:07.393Z,7.45
2016-11-27T00:23:08.027Z,7.40
2016-11-27T00:24:07.589Z,7.41
2016-11-27T00:25:07.222Z,7.50
2016-11-27T00:26:07.812Z,7.40
2016-11-27T00:27:07.674Z,7.46
2016-11-27T00:28:07.233Z,7.51
2016-11-27T00:29:07.888Z,7.46
2016-11-27T00:30:07.459Z,7.49
2016-11-27T00:31:07.989Z,7.60
2016-11-27T00:32:07.543Z,7.57
2016-11-27T00:33:08.094Z,7.60
2016-11-27T00:34:07.723Z,7.54
2016-11-27T00:35:07.317Z,7.56
2016-11-27T00:36:07.903Z,7.62
2016-11-27T00:37:07.466Z,7.56
2016-11-27T00:38:08.174Z,7.54
2016-11-27T00:39:07.749Z,7.55
2016-11-27T00:40:07.303Z,7.48
2016-11-27T00:41:08.113Z,7.42
2016-11-27T00:42:07.658Z,7.52
2016-11-27T00:43:07.126Z,7.53
2016-11-27T00:44:07.629Z,7.56
2016-11-27T00:45:07.355Z,7.58
2016-11-27T00:46:08.033Z,7.64
2016-11-27T00:47:07.646Z,7.70
2016-11-27T00:48:07.190Z,7.57
2016-11-27T00:49:07.842Z,7.72
2016-11-27T00:50:07.429Z,7.42
2016-11-27T00:51:07.959Z,7.50
2016-11-27T00:52:07.494Z,7.53
2016-11-27T00:53:08.156Z,7.57
2016-11-27T00:54:08.109Z,7.44
2016-11-27T00:55:07.643Z,7.57
2016-11-27T00:56:07.770Z,7.46
2016-11-27T00:57:07.295Z,7.44
2016-11-27T00:58:07.806Z,7.38
2016-11-27T00:59:07.356Z,7.47
2016-11-27T01:00:08.203Z,7.43
2016-11-27T01:01:07.797Z,7.38
2016-11-27T01:02:07.266Z,7.35
2016-11-27T01:03:07.908Z,7.32
2016-11-27T01:04:07.483Z,7.26
2016-11-27T01:05:08.155Z,7.22
2016-11-27T01:06:07.763Z,7.39
2016-11-27T01:07:07.332Z,7.30
2016-11-27T01:08:07.864Z,7.40
2016-11-27T01:09:07.088Z,7.53
2016-11-27T01:10:07.395Z,7.42
2016-11-27T01:11:07.283Z,7.36
2016-11-27T01:12:07.706Z,7.41
2016-11-27T01:13:08.142Z,7.56
2016-11-27T01:14:07.760Z,7.52
2016-11-27T01:15:07.377Z,7.58
2016-11-27T01:16:07.548Z,7.50
2016-11-27T01:17:08.274Z,7.51
2016-11-27T01:18:07.966Z,7.34
2016-11-27T01:19:07.483Z,7.28
2016-11-27T01:20:07.859Z,7.44
2016-11-27T01:21:07.806Z,7.15
2016-11-27T01:22:07.673Z,7.31
2016-11-27T01:23:07.230Z,7.28
2016-11-27T01:24:07.709Z,7.39
2016-11-27T01:25:07.352Z,7.34
2016-11-27T01:26:07.941Z,7.42
2016-11-27T01:27:07.189Z,7.50
2016-11-27T01:28:08.103Z,7.42
2016-11-27T01:29:07.509Z,7.37
2016-11-27T01:30:07.359Z,7.18
2016-11-27T01:31:07.811Z,7.16
2016-11-27T01:32:07.630Z,7.19
2016-11-27T01:33:08.204Z,7.28
2016-11-27T01:34:07.718Z,7.38
2016-11-27T01:35:07.297Z,7.16
2016-11-27T01:36:07.376Z,6.97
2016-11-27T01:37:07.964Z,7.08
2016-11-27T01:38:07.510Z,7.13
2016-11-27T01:39:08.260Z,7.25
2016-11-27T01:40:07.863Z,7.26
2016-11-27T01:41:07.406Z,7.24
2016-11-27T01:42:07.996Z,7.22
2016-11-27T01:43:07.547Z,7.27
2016-11-27T01:44:07.171Z,7.26
2016-11-27T01:45:07.697Z,7.43
2016-11-27T01:46:07.240Z,7.33
2016-11-27T01:47:07.800Z,7.26
2016-11-27T01:48:07.795Z,7.27
2016-11-27T01:49:07.336Z,7.40
2016-11-27T01:50:08.001Z,7.19
2016-11-27T01:51:07.583Z,7.19
2016-11-27T01:52:07.161Z,7.14
2016-11-27T01:53:07.733Z,7.29
2016-11-27T01:54:07.298Z,7.36
2016-11-27T01:55:07.931Z,7.43
2016-11-27T01:56:07.501Z,7.41
2016-11-27T01:57:07.551Z,7.26
2016-11-27T01:58:07.974Z,7.15
2016-11-27T01:59:07.657Z,7.28
2016-11-27T02:00:08.077Z,7.32
2016-11-27T02:01:07.796Z,7.26
2016-11-27T02:02:07.591Z,7.31
2016-11-27T02:03:07.288Z,7.31
2016-11-27T02:04:08.020Z,7.39
2016-11-27T02:05:07.533Z,7.39
2016-11-27T02:06:07.996Z,7.49
2016-11-27T02:07:07.478Z,7.45
2016-11-27T02:08:07.464Z,7.45
2016-11-27T02:09:07.985Z,7.42
2016-11-27T02:10:07.156Z,7.51
2016-11-27T02:11:07.351Z,7.47
2016-11-27T02:12:07.780Z,7.56
2016-11-27T02:13:08.023Z,7.50
2016-11-27T02:14:07.500Z,7.43
2016-11-27T02:15:08.188Z,7.41
2016-11-27T02:16:07.928Z,7.46
2016-11-27T02:17:07.660Z,7.10
2016-11-27T02:18:07.439Z,7.29
2016-11-27T02:19:07.881Z,7.27
2016-11-27T02:20:07.281Z,7.33
2016-11-27T02:21:08.028Z,7.40
2016-11-27T02:22:07.521Z,7.49
2016-11-27T02:23:07.316Z,7.18
2016-11-27T02:24:07.339Z,7.24
2016-11-27T02:25:07.777Z,7.33
2016-11-27T02:26:08.121Z,7.35
2016-11-27T02:27:07.781Z,7.48
2016-11-27T02:28:07.467Z,7.53
2016-11-27T02:29:08.158Z,7.56
2016-11-27T02:30:07.783Z,7.40
2016-11-27T02:31:07.448Z,7.41
2016-11-27T02:32:08.103Z,7.44
2016-11-27T02:33:07.564Z,7.43
2016-11-27T02:34:07.290Z,7.36
2016-11-27T02:35:08.035Z,7.47
2016-11-27T02:36:07.687Z,7.49
2016-11-27T02:37:07.242Z,7.40
2016-11-27T02:38:08.149Z,7.23
2016-11-27T02:39:07.828Z,7.23
2016-11-27T02:40:07.400Z,7.22
2016-11-27T02:41:07.904Z,7.24
2016-11-27T02:42:07.499Z,7.29
2016-11-27T02:43:07.982Z,7.45
2016-11-27T02:44:07.765Z,7.22
2016-11-27T02:45:07.329Z,7.26
2016-11-27T02:46:07.992Z,7.32
2016-11-27T02:47:07.552Z,7.42
2016-11-27T02:48:08.288Z,7.50
2016-11-27T02:49:07.984Z,7.42
2016-11-27T02:50:07.489Z,7.41
2016-11-27T02:51:08.101Z,7.45
2016-11-27T02:52:07.750Z,7.43
2016-11-27T02:53:07.237Z,7.53
2016-11-27T02:54:07.892Z,7.59
2016-11-27T02:55:07.400Z,7.51
2016-11-27T02:56:07.988Z,7.53
2016-11-27T02:57:07.532Z,7.49
2016-11-27T02:58:08.055Z,7.47
2016-11-27T02:59:07.642Z,7.34
2016-11-27T03:00:07.472Z,7.42
2016-11-27T03:01:08.074Z,7.33
2016-11-27T03:02:07.779Z,7.27
2016-11-27T03:03:07.279Z,7.41
2016-11-27T03:04:07.950Z,7.52
2016-11-27T03:05:07.441Z,7.47
2016-11-27T03:06:07.979Z,7.38
2016-11-27T03:07:07.529Z,7.36
2016-11-27T03:08:08.236Z,7.50
2016-11-27T03:09:08.228Z,7.45
2016-11-27T03:10:07.812Z,7.34
2016-11-27T03:11:07.416Z,7.40
2016-11-27T03:12:08.033Z,7.36
2016-11-27T03:13:07.578Z,7.47
2016-11-27T03:14:08.178Z,7.51
2016-11-27T03:15:07.846Z,7.38
2016-11-27T03:16:07.434Z,7.30
2016-11-27T03:17:08.090Z,7.42
2016-11-27T03:18:08.087Z,7.38
2016-11-27T03:19:07.518Z,7.35
2016-11-27T03:20:08.029Z,7.32
2016-11-27T03:21:07.533Z,7.27
2016-11-27T03:22:08.160Z,7.30
2016-11-27T03:23:07.791Z,7.24
2016-11-27T03:24:07.349Z,7.38
2016-11-27T03:25:07.953Z,7.37
2016-11-27T03:26:07.488Z,7.42
2016-11-27T03:27:07.290Z,7.41
2016-11-27T03:28:08.077Z,7.44
2016-11-27T03:29:07.678Z,7.27
2016-11-27T03:30:07.251Z,7.46
2016-11-27T03:31:07.828Z,7.25
2016-11-27T03:32:07.406Z,7.27
2016-11-27T03:33:08.057Z,7.36
2016-11-27T03:34:07.629Z,7.48
2016-11-27T03:35:07.156Z,7.44
2016-11-27T03:36:07.800Z,7.36
2016-11-27T03:37:07.379Z,7.51
2016-11-27T03:38:08.062Z,7.46
2016-11-27T03:39:07.606Z,7.38
2016-11-27T03:40:07.169Z,7.32
2016-11-27T03:41:07.660Z,7.29
2016-11-27T03:42:07.218Z,7.34
2016-11-27T03:43:07.859Z,7.49
2016-11-27T03:44:07.537Z,7.29
2016-11-27T03:45:07.635Z,7.27
2016-11-27T03:46:07.144Z,7.41
2016-11-27T03:47:07.726Z,7.34
2016-11-27T03:48:07.374Z,7.34
2016-11-27T03:49:07.980Z,7.40
2016-11-27T03:50:07.469Z,7.30
2016-11-27T03:51:08.030Z,7.24
2016-11-27T03:52:07.589Z,7.33
2016-11-27T03:53:07.900Z,7.28
2016-11-27T03:54:07.468Z,7.31
2016-11-27T03:55:08.039Z,7.30
2016-11-27T03:56:07.561Z,7.40
2016-11-27T03:57:08.204Z,7.44
2016-11-27T03:58:07.800Z,7.43
2016-11-27T03:59:07.384Z,7.43
2016-11-27T04:00:08.047Z,7.20
2016-11-27T04:01:07.497Z,7.25
2016-11-27T04:02:07.790Z,7.27
2016-11-27T04:03:07.417Z,7.25
2016-11-27T04:04:07.986Z,7.34
2016-11-27T04:05:07.486Z,7.34
2016-11-27T04:06:08.127Z,7.29
2016-11-27T04:07:07.778Z,7.23
2016-11-27T04:08:07.264Z,7.13
2016-11-27T04:09:07.829Z,7.19
2016-11-27T04:10:07.290Z,7.22
2016-11-27T04:11:07.825Z,7.18
2016-11-27T04:12:07.368Z,7.33
2016-11-27T04:13:08.031Z,7.34
2016-11-27T04:14:07.632Z,7.27
2016-11-27T04:15:07.167Z,7.35
2016-11-27T04:16:07.782Z,7.50
2016-11-27T04:17:07.417Z,7.42
2016-11-27T04:18:08.042Z,7.18
2016-11-27T04:19:07.530Z,7.25
2016-11-27T04:20:07.770Z,7.34
2016-11-27T04:21:07.455Z,7.33
2016-11-27T04:22:08.012Z,7.37
2016-11-27T04:23:07.882Z,7.34
2016-11-27T04:24:07.563Z,7.40
2016-11-27T04:25:08.248Z,7.52
2016-11-27T04:26:07.870Z,7.40
2016-11-27T04:27:07.397Z,7.28
2016-11-27T04:28:08.061Z,7.39
2016-11-27T04:29:07.648Z,7.40
2016-11-27T04:30:07.296Z,7.45
2016-11-27T04:31:07.871Z,7.46
2016-11-27T04:32:07.519Z,7.03
2016-11-27T04:33:08.214Z,7.14
2016-11-27T04:34:07.794Z,7.18
2016-11-27T04:35:07.378Z,7.23
2016-11-27T04:36:07.987Z,7.27
2016-11-27T04:37:07.534Z,7.30
2016-11-27T04:38:07.967Z,7.26
2016-11-27T04:39:07.227Z,7.27
2016-11-27T04:40:07.760Z,7.28
2016-11-27T04:41:07.297Z,7.30
2016-11-27T04:42:07.804Z,7.35
2016-11-27T04:43:07.692Z,7.26
2016-11-27T04:44:07.226Z,7.22
2016-11-27T04:45:07.769Z,7.41
2016-11-27T04:46:07.394Z,7.43
2016-11-27T04:47:07.997Z,7.41
2016-11-27T04:48:07.558Z,7.19
2016-11-27T04:49:08.258Z,7.20
2016-11-27T04:50:07.800Z,7.25
2016-11-27T04:51:07.364Z,7.32
2016-11-27T04:52:07.889Z,7.13
2016-11-27T04:53:07.655Z,7.18
2016-11-27T04:54:07.179Z,7.35
2016-11-27T04:55:07.800Z,7.30
2016-11-27T04:56:07.398Z,7.13
2016-11-27T04:57:08.033Z,7.15
2016-11-27T04:58:07.570Z,7.27
2016-11-27T04:59:07.823Z,7.38
2016-11-27T05:00:07.436Z,7.41
2016-11-27T05:01:08.129Z,7.54
2016-11-27T05:02:07.675Z,7.54
2016-11-27T05:03:07.252Z,7.54
2016-11-27T05:04:07.904Z,7.46
2016-11-27T05:05:07.468Z,7.35
2016-11-27T05:06:08.039Z,7.08
2016-11-27T05:07:07.487Z,7.22
2016-11-27T05:08:08.318Z,7.20
2016-11-27T05:09:07.892Z,7.08
2016-11-27T05:10:07.486Z,7.28
2016-11-27T05:11:07.998Z,7.16
2016-11-27T05:12:07.511Z,7.13
2016-11-27T05:13:08.091Z,7.10
2016-11-27T05:14:07.654Z,7.19
2016-11-27T05:15:07.147Z,7.26
2016-11-27T05:16:07.795Z,7.34
2016-11-27T05:17:07.471Z,7.44
2016-11-27T05:18:08.090Z,7.24
2016-11-27T05:19:07.592Z,7.28
2016-11-27T05:20:07.218Z,7.15
2016-11-27T05:21:07.876Z,7.28
2016-11-27T05:22:07.436Z,7.30
2016-11-27T05:23:08.457Z,7.38
2016-11-27T05:24:08.047Z,7.32
2016-11-27T05:25:10.263Z,7.17
2016-11-27T05:26:08.089Z,7.18
2016-11-27T05:27:07.731Z,7.36
2016-11-27T05:28:07.257Z,7.23
2016-11-27T05:29:08.047Z,7.19
2016-11-27T05:30:07.479Z,7.13
2016-11-27T05:31:07.881Z,7.15
2016-11-27T05:32:07.493Z,7.21
2016-11-27T05:33:08.083Z,7.22
2016-11-27T05:34:07.631Z,7.07
2016-11-27T05:35:07.137Z,7.20
2016-11-27T05:36:07.683Z,7.08
2016-11-27T05:37:07.247Z,7.08
2016-11-27T05:38:07.826Z,7.30
2016-11-27T05:39:07.309Z,7.35
2016-11-27T05:40:07.969Z,7.35
2016-11-27T05:41:07.451Z,7.28
2016-11-27T05:42:08.000Z,7.29
2016-11-27T05:43:07.598Z,7.39
2016-11-27T05:44:07.171Z,7.33
2016-11-27T05:45:07.651Z,7.38
2016-11-27T05:46:07.536Z,7.41
2016-11-27T05:47:09.689Z,7.45
2016-11-27T05:48:07.190Z,7.38
2016-11-27T05:49:07.682Z,7.35
2016-11-27T05:50:07.819Z,7.45
2016-11-27T05:51:07.272Z,7.37
2016-11-27T05:52:07.828Z,7.45
2016-11-27T05:53:07.332Z,7.51
2016-11-27T05:54:07.958Z,7.36
2016-11-27T05:55:07.512Z,7.40
2016-11-27T05:56:08.219Z,7.40
2016-11-27T05:57:07.824Z,7.46
2016-11-27T05:58:07.409Z,7.41
2016-11-27T05:59:08.052Z,7.31
2016-11-27T06:00:07.677Z,7.48
2016-11-27T06:01:07.204Z,7.40
2016-11-27T06:02:07.803Z,7.42
2016-11-27T06:03:07.305Z,7.44
2016-11-27T06:04:07.917Z,7.48
2016-11-27T06:05:07.448Z,7.37
2016-11-27T06:06:08.046Z,7.58
2016-11-27T06:07:07.566Z,7.45
2016-11-27T06:08:08.258Z,7.41
2016-11-27T06:09:07.847Z,7.37
2016-11-27T06:10:07.451Z,7.36
2016-11-27T06:11:08.138Z,7.11
2016-11-27T06:12:07.705Z,6.99
2016-11-27T06:13:07.288Z,7.16
2016-11-27T06:14:07.890Z,7.23
2016-11-27T06:15:07.430Z,7.24
2016-11-27T06:16:08.369Z,7.18
2016-11-27T06:17:07.589Z,7.23
2016-11-27T06:18:07.110Z,7.10
2016-11-27T06:19:08.534Z,7.17
2016-11-27T06:20:08.130Z,7.26
2016-11-27T06:21:07.914Z,7.31
2016-11-27T06:22:07.442Z,7.25
2016-11-27T06:23:08.172Z,7.35
2016-11-27T06:24:07.727Z,7.38
2016-11-27T06:25:07.288Z,7.37
2016-11-27T06:26:07.903Z,7.28
2016-11-27T06:27:08.176Z,7.12
2016-11-27T06:28:07.766Z,7.24
2016-11-27T06:29:07.355Z,7.30
2016-11-27T06:30:07.888Z,7.38
2016-11-27T06:31:07.395Z,7.12
2016-11-27T06:32:07.973Z,7.05
2016-11-27T06:33:07.521Z,7.02
2016-11-27T06:34:07.968Z,7.08
2016-11-27T06:35:07.960Z,7.24
2016-11-27T06:36:07.110Z,7.18
2016-11-27T06:37:07.687Z,7.26
2016-11-27T06:38:07.329Z,7.01
2016-11-27T06:39:07.972Z,7.20
2016-11-27T06:40:07.464Z,7.25
2016-11-27T06:41:08.025Z,7.20
2016-11-27T06:42:07.612Z,7.28
2016-11-27T06:43:07.234Z,7.36
2016-11-27T06:44:07.871Z,7.29
2016-11-27T06:45:07.346Z,7.38
2016-11-27T06:46:07.959Z,7.56
2016-11-27T06:47:07.557Z,7.52
2016-11-27T06:48:08.005Z,7.46
2016-11-27T06:49:07.626Z,7.37
2016-11-27T06:50:07.251Z,7.36
2016-11-27T06:51:07.713Z,7.29
2016-11-27T06:52:07.368Z,7.24
2016-11-27T06:53:08.350Z,7.31
2016-11-27T06:54:07.932Z,7.38
2016-11-27T06:55:07.454Z,7.36
2016-11-27T06:56:08.027Z,7.47
2016-11-27T06:57:07.598Z,7.49
2016-11-27T06:58:07.217Z,7.46
2016-11-27T06:59:07.876Z,7.48
2016-11-27T07:00:07.409Z,7.54
2016-11-27T07:01:07.916Z,7.50
2016-11-27T07:02:07.820Z,7.31
2016-11-27T07:03:07.353Z,7.48
2016-11-27T07:04:07.913Z,7.47
2016-11-27T07:05:07.736Z,7.40
2016-11-27T07:06:07.429Z,7.44
2016-11-27T07:07:08.008Z,7.35
2016-11-27T07:08:07.545Z,7.38
2016-11-27T07:09:08.150Z,7.42
2016-11-27T07:10:07.733Z,7.36
2016-11-27T07:11:07.298Z,7.34
2016-11-27T07:12:07.771Z,7.20
2016-11-27T07:13:07.278Z,7.30
2016-11-27T07:14:07.813Z,7.35
2016-11-27T07:15:07.443Z,7.37
2016-11-27T07:16:08.134Z,7.29
2016-11-27T07:17:07.862Z,7.29
2016-11-27T07:18:07.439Z,7.27
2016-11-27T07:19:07.200Z,7.39
2016-11-27T07:20:07.780Z,7.27
2016-11-27T07:21:08.134Z,7.24
2016-11-27T07:22:07.703Z,7.34
2016-11-27T07:23:07.286Z,7.43
2016-11-27T07:24:07.909Z,7.08
2016-11-27T07:25:07.504Z,7.23
2016-11-27T07:26:08.149Z,7.16
2016-11-27T07:27:07.719Z,7.32
2016-11-27T07:28:07.294Z,7.30
2016-11-27T07:29:07.879Z,7.41
2016-11-27T07:30:07.485Z,7.51
2016-11-27T07:31:08.125Z,7.57
2016-11-27T07:32:07.805Z,7.53
2016-11-27T07:33:07.328Z,7.48
2016-11-27T07:34:07.855Z,7.51
2016-11-27T07:35:07.451Z,7.50
2016-11-27T07:36:08.152Z,7.35
2016-11-27T07:37:07.777Z,7.41
2016-11-27T07:38:07.376Z,7.28
2016-11-27T07:39:07.966Z,7.19
2016-11-27T07:40:07.474Z,7.22
2016-11-27T07:41:08.045Z,7.34
2016-11-27T07:42:07.679Z,7.44
2016-11-27T07:43:07.220Z,7.54
2016-11-27T07:44:07.865Z,7.49
2016-11-27T07:45:07.405Z,7.39
2016-11-27T07:46:07.995Z,7.22
2016-11-27T07:47:07.592Z,7.33
2016-11-27T07:48:07.112Z,7.50
2016-11-27T07:49:07.624Z,7.52
2016-11-27T07:50:07.154Z,7.46
2016-11-27T07:51:07.647Z,7.52
2016-11-27T07:52:07.153Z,7.56
2016-11-27T07:53:07.716Z,7.59
2016-11-27T07:54:07.359Z,7.53
2016-11-27T07:55:07.997Z,7.38
2016-11-27T07:56:07.581Z,7.30
2016-11-27T07:57:08.207Z,7.37
2016-11-27T07:58:08.016Z,7.39
2016-11-27T07:59:07.644Z,7.44
2016-11-27T08:00:07.169Z,7.39
2016-11-27T08:01:07.702Z,7.54
2016-11-27T08:02:07.252Z,7.45
2016-11-27T08:03:07.704Z,7.56
2016-11-27T08:04:07.557Z,7.46
2016-11-27T08:05:08.235Z,7.36
2016-11-27T08:06:07.899Z,7.44
2016-11-27T08:07:07.432Z,7.52
2016-11-27T08:08:08.076Z,7.43
2016-11-27T08:09:07.723Z,7.42
2016-11-27T08:10:07.222Z,7.26
2016-11-27T08:11:07.805Z,7.36
2016-11-27T08:12:07.373Z,7.35
2016-11-27T08:13:08.086Z,7.20
2016-11-27T08:14:07.656Z,7.29
2016-11-27T08:15:07.193Z,7.51
2016-11-27T08:16:07.757Z,7.60
2016-11-27T08:17:07.543Z,7.52
2016-11-27T08:18:08.209Z,7.40
2016-11-27T08:19:07.856Z,7.48
2016-11-27T08:20:07.458Z,7.39
2016-11-27T08:21:08.106Z,7.41
2016-11-27T08:22:07.596Z,7.43
2016-11-27T08:23:07.091Z,7.51
2016-11-27T08:24:07.588Z,7.60
2016-11-27T08:25:07.104Z,7.44
2016-11-27T08:26:07.759Z,7.44
2016-11-27T08:27:07.298Z,7.46
2016-11-27T08:28:07.947Z,7.60
2016-11-27T08:29:07.494Z,7.62
2016-11-27T08:30:08.086Z,7.36
2016-11-27T08:31:07.653Z,7.58
2016-11-27T08:32:07.147Z,7.59
2016-11-27T08:33:07.689Z,7.51
2016-11-27T08:34:07.717Z,7.49
2016-11-27T08:35:07.279Z,7.65
2016-11-27T08:36:07.907Z,7.68
2016-11-27T08:37:07.468Z,7.45
2016-11-27T08:38:08.139Z,7.57
2016-11-27T08:39:07.759Z,7.76
2016-11-27T08:40:07.395Z,7.74
2016-11-27T08:41:07.989Z,7.76
2016-11-27T08:42:07.545Z,7.78
2016-11-27T08:43:08.181Z,7.85
2016-11-27T08:44:07.767Z,7.96
2016-11-27T08:45:07.315Z,7.91
2016-11-27T08:46:07.801Z,7.99
2016-11-27T08:47:07.304Z,7.80
2016-11-27T08:48:07.979Z,7.64
2016-11-27T08:49:07.829Z,7.87
2016-11-27T08:50:07.727Z,7.93
2016-11-27T08:51:07.333Z,8.09
2016-11-27T08:52:08.041Z,8.13
2016-11-27T08:53:07.691Z,8.01
2016-11-27T08:54:07.289Z,7.83
2016-11-27T08:55:08.003Z,7.95
2016-11-27T08:56:07.641Z,8.10
2016-11-27T08:57:07.256Z,8.18
2016-11-27T08:58:07.950Z,8.10
2016-11-27T08:59:07.610Z,8.22
2016-11-27T09:00:07.213Z,8.31
2016-11-27T09:01:08.414Z,8.19
2016-11-27T09:02:08.108Z,8.10
2016-11-27T09:03:07.570Z,8.07
2016-11-27T09:04:08.190Z,7.95
2016-11-27T09:05:07.833Z,8.16
2016-11-27T09:06:07.306Z,8.18
2016-11-27T09:07:07.918Z,8.21
2016-11-27T09:08:07.456Z,8.09
2016-11-27T09:09:08.142Z,8.22
2016-11-27T09:10:07.725Z,8.18
2016-11-27T09:11:07.514Z,8.24
2016-11-27T09:12:08.138Z,8.07
2016-11-27T09:13:07.771Z,7.80
2016-11-27T09:14:07.374Z,7.72
2016-11-27T09:15:07.812Z,7.86
2016-11-27T09:16:07.891Z,8.01
2016-11-27T09:17:07.686Z,7.84
2016-11-27T09:18:07.291Z,7.85
2016-11-27T09:19:07.919Z,7.83
2016-11-27T09:20:07.581Z,7.93
2016-11-27T09:21:07.144Z,8.07
2016-11-27T09:22:07.760Z,8.15
2016-11-27T09:23:07.463Z,8.24
2016-11-27T09:24:08.085Z,8.24
2016-11-27T09:25:07.702Z,8.37
2016-11-27T09:26:07.275Z,8.36
2016-11-27T09:27:07.802Z,8.37
2016-11-27T09:28:07.422Z,8.32
2016-11-27T09:29:07.911Z,8.34
2016-11-27T09:30:07.542Z,8.28
2016-11-27T09:31:08.187Z,8.18
2016-11-27T09:32:07.761Z,8.06
2016-11-27T09:33:07.421Z,7.97
2016-11-27T09:34:07.974Z,7.87
2016-11-27T09:35:07.524Z,7.90
2016-11-27T09:36:07.634Z,7.98
2016-11-27T09:37:07.178Z,8.02
2016-11-27T09:38:07.801Z,7.79
2016-11-27T09:39:07.311Z,7.94
2016-11-27T09:40:08.015Z,8.05
2016-11-27T09:41:07.567Z,7.91
2016-11-27T09:42:08.180Z,8.01
2016-11-27T09:43:08.049Z,8.01
2016-11-27T09:44:07.618Z,8.00
2016-11-27T09:45:07.198Z,8.04
2016-11-27T09:46:07.906Z,8.10
2016-11-27T09:47:07.403Z,8.23
2016-11-27T09:48:08.012Z,8.13
2016-11-27T09:49:07.552Z,8.03
2016-11-27T09:50:08.246Z,8.19
2016-11-27T09:51:07.776Z,8.26
2016-11-27T09:52:07.270Z,7.88
2016-11-27T09:53:07.891Z,7.72
2016-11-27T09:54:07.386Z,7.83
2016-11-27T09:55:07.964Z,7.85
2016-11-27T09:56:07.632Z,7.64
2016-11-27T09:57:07.129Z,7.82
2016-11-27T09:58:07.725Z,7.80
2016-11-27T09:59:07.311Z,8.07
2016-11-27T10:00:07.899Z,8.05
2016-11-27T10:01:07.512Z,8.12
2016-11-27T10:02:08.147Z,8.17
2016-11-27T10:03:07.778Z,8.09
2016-11-27T10:04:08.103Z,8.23
2016-11-27T10:05:07.695Z,8.30
2016-11-27T10:06:07.230Z,8.24
2016-11-27T10:07:07.814Z,8.17
2016-11-27T10:08:07.336Z,8.34
2016-11-27T10:09:08.164Z,8.25
2016-11-27T10:10:07.853Z,8.35
2016-11-27T10:11:07.378Z,8.01
2016-11-27T10:12:07.950Z,8.08
2016-11-27T10:13:07.514Z,7.87
2016-11-27T10:14:08.293Z,8.08
2016-11-27T10:15:07.939Z,8.27
2016-11-27T10:16:07.518Z,8.24
2016-11-27T10:17:08.247Z,8.32
2016-11-27T10:18:07.789Z,8.36
2016-11-27T10:19:07.281Z,8.15
2016-11-27T10:20:07.933Z,8.09
2016-11-27T10:21:07.598Z,8.26
2016-11-27T10:22:07.229Z,8.19
2016-11-27T10:23:07.826Z,8.32
2016-11-27T10:24:07.493Z,8.35
2016-11-27T10:25:08.091Z,8.24
2016-11-27T10:26:07.734Z,8.23
2016-11-27T10:27:07.239Z,8.40
2016-11-27T10:28:07.871Z,8.27
2016-11-27T10:29:08.196Z,8.17
2016-11-27T10:30:11.212Z,8.35
2016-11-27T10:31:07.813Z,8.36
2016-11-27T10:32:07.449Z,8.18
2016-11-27T10:33:08.090Z,8.23
2016-11-27T10:34:07.665Z,8.15
2016-11-27T10:35:07.243Z,8.05
2016-11-27T10:36:07.846Z,7.94
2016-11-27T10:37:07.440Z,8.09
2016-11-27T10:38:07.997Z,8.09
2016-11-27T10:39:13.008Z,8.18
2016-11-27T10:40:07.541Z,8.22
2016-11-27T10:41:08.119Z,8.24
2016-11-27T10:42:07.705Z,8.07
2016-11-27T10:43:08.070Z,8.17
2016-11-27T10:44:07.675Z,8.10
2016-11-27T10:45:07.369Z,8.02
2016-11-27T10:46:07.458Z,8.08
2016-11-27T10:47:08.128Z,8.03
2016-11-27T10:48:07.752Z,8.04
2016-11-27T10:49:07.377Z,8.11
2016-11-27T10:50:07.913Z,8.09
2016-11-27T10:51:07.407Z,8.08
2016-11-27T10:52:07.988Z,8.12
2016-11-27T10:53:07.572Z,8.04
2016-11-27T10:54:08.181Z,8.11
2016-11-27T10:55:07.901Z,8.21
2016-11-27T10:56:07.724Z,8.16
2016-11-27T10:57:07.393Z,8.13
2016-11-27T10:58:08.230Z,8.12
2016-11-27T10:59:07.351Z,8.12
2016-11-27T11:00:07.976Z,8.25
2016-11-27T11:01:07.532Z,8.16
2016-11-27T11:02:08.185Z,8.06
2016-11-27T11:03:07.766Z,7.99
2016-11-27T11:04:07.285Z,8.03
2016-11-27T11:05:07.823Z,7.97
2016-11-27T11:06:07.608Z,8.04
2016-11-27T11:07:07.098Z,8.01
2016-11-27T11:08:07.672Z,8.03
2016-11-27T11:09:07.344Z,8.03
2016-11-27T11:10:07.920Z,8.06
2016-11-27T11:11:07.514Z,7.99
2016-11-27T11:12:08.188Z,7.95
2016-11-27T11:13:07.753Z,7.93
2016-11-27T11:14:07.272Z,7.91
2016-11-27T11:15:07.862Z,7.93
2016-11-27T11:16:07.456Z,7.93
2016-11-27T11:17:08.147Z,8.02
2016-11-27T11:18:07.815Z,8.04
2016-11-27T11:19:07.456Z,8.14
2016-11-27T11:20:08.045Z,8.13
2016-11-27T11:21:07.664Z,8.13
2016-11-27T11:22:07.226Z,8.13
2016-11-27T11:23:07.801Z,8.20
2016-11-27T11:24:07.311Z,8.18
2016-11-27T11:25:07.870Z,7.88
2016-11-27T11:26:07.571Z,7.81
2016-11-27T11:27:08.232Z,7.83
2016-11-27T11:28:07.821Z,7.76
2016-11-27T11:29:07.369Z,7.97
2016-11-27T11:30:08.024Z,8.02
2016-11-27T11:31:07.746Z,7.94
2016-11-27T11:32:07.256Z,8.09
2016-11-27T11:33:07.848Z,8.12
2016-11-27T11:34:07.358Z,8.11
2016-11-27T11:35:07.937Z,8.17
2016-11-27T11:36:07.659Z,8.12
2016-11-27T11:37:07.747Z,8.02
2016-11-27T11:38:07.383Z,8.23
2016-11-27T11:39:07.991Z,8.27
2016-11-27T11:40:07.557Z,8.14
2016-11-27T11:41:08.261Z,8.19
2016-11-27T11:42:07.876Z,8.27
2016-11-27T11:43:07.523Z,8.17
2016-11-27T11:44:08.188Z,8.23
2016-11-27T11:45:07.801Z,8.17
2016-11-27T11:46:07.279Z,8.20
2016-11-27T11:47:07.788Z,8.11
2016-11-27T11:48:07.361Z,8.12
2016-11-27T11:49:07.914Z,8.18
2016-11-27T11:50:07.484Z,8.24
2016-11-27T11:51:08.091Z,8.19
2016-11-27T11:52:07.653Z,8.10
2016-11-27T11:53:07.178Z,8.22
2016-11-27T11:54:07.806Z,8.27
2016-11-27T11:55:07.388Z,8.26
2016-11-27T11:56:07.979Z,8.21
2016-11-27T11:57:07.708Z,8.38
2016-11-27T11:58:07.322Z,8.41
2016-11-27T11:59:07.982Z,8.48
2016-11-27T12:00:07.879Z,8.42
2016-11-27T12:01:07.451Z,8.31
2016-11-27T12:02:08.081Z,8.22
2016-11-27T12:03:07.734Z,8.40
2016-11-27T12:04:07.275Z,8.42
2016-11-27T12:05:07.866Z,8.51
2016-11-27T12:06:07.435Z,8.40
2016-11-27T12:07:08.037Z,8.37
2016-11-27T12:08:07.679Z,8.39
2016-11-27T12:09:07.166Z,8.44
2016-11-27T12:10:07.784Z,8.56
2016-11-27T12:11:07.408Z,8.43
2016-11-27T12:12:08.100Z,8.29
2016-11-27T12:13:07.773Z,8.40
2016-11-27T12:14:07.349Z,8.39
2016-11-27T12:15:07.928Z,8.34
2016-11-27T12:16:07.418Z,8.47
2016-11-27T12:17:08.124Z,8.56
2016-11-27T12:18:07.768Z,8.64
2016-11-27T12:19:07.310Z,8.52
2016-11-27T12:20:08.745Z,8.31
2016-11-27T12:21:07.611Z,8.37
2016-11-27T12:22:07.145Z,8.35
2016-11-27T12:23:07.893Z,8.35
2016-11-27T12:24:08.460Z,8.41
2016-11-27T12:25:08.858Z,8.37
2016-11-27T12:26:07.286Z,8.46
2016-11-27T12:27:07.910Z,8.38
2016-11-27T12:28:07.419Z,8.40
2016-11-27T12:29:07.852Z,8.43
2016-11-27T12:30:08.081Z,8.35
2016-11-27T12:31:07.138Z,8.46
2016-11-27T12:32:07.831Z,8.45
2016-11-27T12:33:07.350Z,8.55
2016-11-27T12:34:07.998Z,8.41
2016-11-27T12:35:07.594Z,8.45
2016-11-27T12:36:07.240Z,8.23
2016-11-27T12:37:07.879Z,8.15
2016-11-27T12:38:07.469Z,8.41
2016-11-27T12:39:08.074Z,8.27
2016-11-27T12:40:07.655Z,8.54
2016-11-27T12:41:07.213Z,8.51
2016-11-27T12:42:07.809Z,8.75
2016-11-27T12:43:07.406Z,8.99
2016-11-27T12:44:08.187Z,8.72
2016-11-27T12:45:07.827Z,8.79
2016-11-27T12:46:07.417Z,8.65
2016-11-27T12:47:08.037Z,8.41
2016-11-27T12:48:07.567Z,8.55
2016-11-27T12:49:08.233Z,8.55
2016-11-27T12:50:07.839Z,8.54
2016-11-27T12:51:07.419Z,8.57
2016-11-27T12:52:08.081Z,8.51
2016-11-27T12:53:07.647Z,8.32
2016-11-27T12:54:07.560Z,8.26
2016-11-27T12:55:08.217Z,8.36
2016-11-27T12:56:07.993Z,8.48
2016-11-27T12:57:07.551Z,8.39
2016-11-27T12:58:08.215Z,8.21
2016-11-27T12:59:07.765Z,8.27
2016-11-27T13:00:07.336Z,8.09
2016-11-27T13:01:07.973Z,8.35
2016-11-27T13:02:07.506Z,8.31
2016-11-27T13:03:08.185Z,8.32
2016-11-27T13:04:07.725Z,8.27
2016-11-27T13:05:07.294Z,8.17
2016-11-27T13:06:07.810Z,8.26
2016-11-27T13:07:07.384Z,8.17
2016-11-27T13:08:08.227Z,8.18
2016-11-27T13:09:07.759Z,7.93
2016-11-27T13:10:07.323Z,8.01
2016-11-27T13:11:07.957Z,7.96
2016-11-27T13:12:07.570Z,8.09
2016-11-27T13:13:08.216Z,8.14
2016-11-27T13:14:07.808Z,8.14
2016-11-27T13:15:07.489Z,8.22
2016-11-27T13:16:08.036Z,8.13
2016-11-27T13:17:07.702Z,8.06
2016-11-27T13:18:07.288Z,8.12